createdAt,value
2019-01-17T00:06:33.898Z,85.49
2019-01-17T00:09:40.647Z,86.30
2019-01-17T00:12:48.939Z,87.17
2019-01-17T00:15:55.714Z,88.34
2019-01-17T00:18:43.202Z,88.62
2019-01-17T00:26:48.305Z,89.24
2019-01-17T00:29:35.799Z,89.41
2019-01-17T00:32:42.559Z,89.39
2019-01-17T00:38:19.129Z,90.47
2019-01-17T00:41:06.617Z,90.70
2019-01-17T00:43:54.113Z,90.76
2019-01-17T00:46:41.610Z,90.11
2019-01-17T00:49:29.110Z,90.42
2019-01-17T00:52:16.617Z,91.55
2019-01-17T00:55:04.138Z,92.03
2019-01-17T00:57:51.639Z,92.03
2019-01-17T01:00:39.132Z,91.77
2019-01-17T01:06:02.109Z,91.33
2019-01-17T01:08:49.607Z,91.58
2019-01-17T01:11:37.098Z,91.37
2019-01-17T01:14:24.599Z,91.67
2019-01-17T01:17:32.892Z,92.09
2019-01-17T01:20:20.382Z,92.15
2019-01-17T01:23:07.884Z,92.18
2019-01-17T01:26:14.630Z,91.60
2019-01-17T01:29:02.132Z,91.76
2019-01-17T01:34:57.717Z,91.73
2019-01-17T01:37:45.219Z,91.68
2019-01-17T01:40:32.711Z,92.45
2019-01-17T01:43:20.216Z,92.78
2019-01-17T01:46:07.714Z,92.94
2019-01-17T01:49:14.467Z,93.14
2019-01-17T01:54:31.930Z,93.66
2019-01-17T01:57:19.422Z,94.03
2019-01-17T01:59:47.803Z,94.29
2019-01-17T02:02:35.436Z,94.47
2019-01-17T02:08:17.525Z,94.59
2019-01-17T02:16:28.470Z,95.59
2019-01-17T02:19:16.103Z,95.49
2019-01-17T02:29:39.648Z,96.53
2019-01-17T02:32:27.277Z,96.79
2019-01-17T02:34:55.662Z,96.75
2019-01-17T02:37:43.284Z,96.42
2019-01-17T02:40:51.579Z,96.39
2019-01-17T02:46:07.416Z,96.26
2019-01-17T02:48:35.787Z,96.25
2019-01-17T02:51:26.266Z,95.98
2019-01-17T02:53:54.641Z,95.42
2019-01-17T02:56:42.255Z,94.37
2019-01-17T02:59:10.631Z,93.57
2019-01-17T03:01:58.120Z,93.31
2019-01-17T03:04:26.504Z,93.32
2019-01-17T03:06:54.873Z,92.68
2019-01-17T03:10:03.167Z,92.29
2019-01-17T03:12:31.531Z,92.06
2019-01-17T03:14:59.913Z,91.32
2019-01-17T03:17:28.273Z,91.01
2019-01-17T03:19:56.650Z,90.94
2019-01-17T03:22:25.011Z,90.92
2019-01-17T03:25:12.504Z,90.62
2019-01-17T03:28:20.780Z,90.92
2019-01-17T03:31:08.413Z,90.88
2019-01-17T03:33:56.022Z,91.26
2019-01-17T03:36:43.518Z,91.37
2019-01-17T03:39:11.894Z,90.82
2019-01-17T03:42:20.175Z,90.70
2019-01-17T03:44:48.551Z,90.78
2019-01-17T03:47:16.912Z,90.64
2019-01-17T03:50:04.414Z,90.62
2019-01-17T03:52:32.790Z,90.40
2019-01-17T03:55:01.175Z,90.43
2019-01-17T03:57:29.528Z,90.24
2019-01-17T03:59:57.915Z,90.02
2019-01-17T04:02:45.538Z,89.71
2019-01-17T04:05:53.822Z,90.95
2019-01-17T04:08:22.189Z,91.76
2019-01-17T04:10:50.563Z,91.98
2019-01-17T04:13:38.043Z,92.01
2019-01-17T04:16:46.329Z,92.09
2019-01-17T04:19:14.697Z,91.90
2019-01-17T04:22:02.320Z,91.37
2019-01-17T04:24:30.684Z,91.66
2019-01-17T04:26:59.054Z,91.80
2019-01-17T04:29:27.437Z,91.20
2019-01-17T04:32:14.940Z,91.13
2019-01-17T04:35:02.416Z,91.13
2019-01-17T04:37:50.043Z,91.19
2019-01-17T04:40:18.415Z,91.43
2019-01-17T04:42:46.786Z,91.35
2019-01-17T04:45:55.068Z,91.32
2019-01-17T04:48:23.438Z,91.04
2019-01-17T04:50:51.813Z,90.73
2019-01-17T04:53:39.423Z,91.20
2019-01-17T04:56:07.803Z,91.65
2019-01-17T04:58:55.419Z,91.71
2019-01-17T05:01:23.792Z,91.57
2019-01-17T05:04:11.405Z,91.43
2019-01-17T05:06:39.786Z,91.68
2019-01-17T05:09:48.073Z,91.65
2019-01-17T05:12:16.446Z,91.30
2019-01-17T05:14:44.810Z,91.02
2019-01-17T05:17:53.101Z,90.88
2019-01-17T05:20:21.484Z,90.86
2019-01-17T05:23:09.091Z,91.06
2019-01-17T05:28:11.430Z,90.64
2019-01-17T05:30:39.807Z,90.72
2019-01-17T05:33:27.421Z,90.62
2019-01-17T05:35:55.811Z,90.59
2019-01-17T05:38:24.164Z,91.08
2019-01-17T05:41:11.791Z,91.00
2019-01-17T05:43:40.151Z,90.80
2019-01-17T05:46:27.774Z,90.84
2019-01-17T05:48:56.147Z,90.22
2019-01-17T05:51:24.525Z,90.26
2019-01-17T05:53:52.895Z,90.37
2019-01-17T05:56:40.391Z,89.85
2019-01-17T05:59:08.761Z,89.59
2019-01-17T06:01:56.263Z,89.69
2019-01-17T06:04:24.620Z,89.86
2019-01-17T06:06:52.992Z,90.49
2019-01-17T06:09:21.355Z,90.25
2019-01-17T06:11:49.728Z,90.21
2019-01-17T06:14:18.098Z,89.98
2019-01-17T06:17:05.816Z,89.43
2019-01-17T06:19:34.187Z,88.93
2019-01-17T06:22:02.568Z,88.44
2019-01-17T06:24:50.180Z,88.52
2019-01-17T06:27:18.564Z,89.38
2019-01-17T06:30:06.177Z,89.68
2019-01-17T06:32:53.800Z,89.66
2019-01-17T06:35:41.440Z,89.04
2019-01-17T06:38:09.788Z,88.65
2019-01-17T06:40:38.159Z,88.51
2019-01-17T06:43:06.532Z,89.00
2019-01-17T06:45:34.898Z,88.78
2019-01-17T06:48:03.339Z,88.05
2019-01-17T06:53:19.158Z,88.46
2019-01-17T06:55:47.522Z,88.43
2019-01-17T07:01:50.790Z,88.61
2019-01-17T07:04:19.158Z,88.87
2019-01-17T07:06:47.528Z,88.56
2019-01-17T07:09:35.152Z,88.74
2019-01-17T07:12:03.541Z,88.41
2019-01-17T07:14:51.163Z,88.28
2019-01-17T07:19:53.502Z,89.53
2019-01-17T07:22:21.898Z,89.14
2019-01-17T07:25:09.513Z,88.99
2019-01-17T07:27:37.898Z,88.37
2019-01-17T07:30:46.179Z,88.69
2019-01-17T07:33:33.740Z,88.85
2019-01-17T07:36:02.140Z,88.31
2019-01-17T07:38:49.778Z,87.90
2019-01-17T07:41:37.396Z,87.54
2019-01-17T07:44:05.773Z,87.23
2019-01-17T07:46:53.398Z,87.06
2019-01-17T07:49:41.022Z,87.29
2019-01-17T07:52:28.710Z,86.68
2019-01-17T07:55:16.213Z,86.86
2019-01-17T07:57:44.626Z,87.40
2019-01-17T08:00:32.419Z,87.69
2019-01-17T08:05:34.898Z,88.35
2019-01-17T08:10:57.815Z,87.45
2019-01-17T08:13:26.197Z,86.99
2019-01-17T08:16:13.757Z,87.04
2019-01-17T08:21:15.985Z,86.96
2019-01-17T08:24:03.867Z,86.79
2019-01-17T08:26:51.484Z,86.58
2019-01-17T08:29:19.864Z,86.88
2019-01-17T08:31:48.242Z,86.69
2019-01-17T08:34:35.965Z,86.54
2019-01-17T08:37:04.610Z,86.33
2019-01-17T08:39:52.233Z,86.34
2019-01-17T08:42:39.852Z,86.01
2019-01-17T08:45:48.142Z,86.58
2019-01-17T08:48:35.770Z,86.18
2019-01-17T08:51:04.207Z,86.06
2019-01-17T08:53:51.829Z,86.03
2019-01-17T08:56:20.205Z,86.49
2019-01-17T08:58:48.580Z,86.14
2019-01-17T09:01:16.954Z,86.21
2019-01-17T09:04:04.588Z,85.83
2019-01-17T09:06:52.201Z,85.98
2019-01-17T09:09:20.583Z,85.80
2019-01-17T09:12:08.200Z,85.21
2019-01-17T09:14:55.701Z,84.14
2019-01-17T09:18:03.982Z,83.87
2019-01-17T09:21:12.277Z,83.02
2019-01-17T09:23:59.761Z,83.01
2019-01-17T09:26:47.254Z,83.60
2019-01-17T09:29:34.941Z,83.85
2019-01-17T09:32:22.560Z,83.33
2019-01-17T09:34:50.931Z,83.43
2019-01-17T09:37:38.716Z,82.99
2019-01-17T09:40:47.029Z,83.12
2019-01-17T09:43:34.512Z,83.87
2019-01-17T09:46:22.004Z,83.52
2019-01-17T09:48:50.375Z,83.09
2019-01-17T09:51:38.096Z,83.43
2019-01-17T09:54:06.466Z,83.46
2019-01-17T09:56:54.089Z,84.07
2019-01-17T09:59:22.469Z,83.34
2019-01-17T10:04:26.592Z,82.52
2019-01-17T10:09:29.411Z,82.11
2019-01-17T10:12:17.029Z,82.67
2019-01-17T10:15:04.526Z,82.65
2019-01-17T10:18:12.854Z,82.52
2019-01-17T10:21:21.095Z,82.07
2019-01-17T10:24:28.050Z,81.50
2019-01-17T10:27:35.018Z,81.34
2019-01-17T10:30:43.311Z,80.79
2019-01-17T10:33:51.589Z,80.71
2019-01-17T10:36:59.934Z,81.14
2019-01-17T10:40:08.227Z,81.11
2019-01-17T10:43:16.570Z,81.16
2019-01-17T10:46:23.535Z,80.16
2019-01-17T10:49:31.818Z,79.55
2019-01-17T10:52:38.786Z,81.16
2019-01-17T10:55:47.123Z,81.22
2019-01-17T10:58:55.403Z,81.80
2019-01-17T11:02:03.695Z,81.95
2019-01-17T11:05:10.675Z,82.69
2019-01-17T11:08:19.027Z,83.39
2019-01-17T11:11:25.988Z,84.07
2019-01-17T11:14:34.271Z,85.01
2019-01-17T11:17:42.563Z,85.63
2019-01-17T11:20:51.033Z,84.79
2019-01-17T11:23:59.373Z,85.36
2019-01-17T11:27:07.664Z,85.10
2019-01-17T11:30:15.942Z,85.08
2019-01-17T11:33:22.905Z,84.42
2019-01-17T11:36:31.204Z,83.72
2019-01-17T11:39:39.536Z,83.13
2019-01-17T11:42:47.899Z,83.22
2019-01-17T11:45:54.842Z,82.14
2019-01-17T11:49:03.156Z,82.03
2019-01-17T11:52:11.484Z,82.74
2019-01-17T11:55:19.731Z,81.29
2019-01-17T11:58:28.029Z,82.44
2019-01-17T12:01:36.391Z,82.82
2019-01-17T12:04:43.358Z,82.46
2019-01-17T12:07:51.657Z,82.50
2019-01-17T12:10:20.027Z,82.36
2019-01-17T12:15:27.098Z,82.18
2019-01-17T12:18:14.723Z,82.08
2019-01-17T12:20:43.095Z,82.20
2019-01-17T12:23:11.486Z,82.34
2019-01-17T12:28:27.295Z,83.03
2019-01-17T12:30:55.673Z,82.83
2019-01-17T12:33:43.300Z,83.54
2019-01-17T12:36:30.786Z,83.64
2019-01-17T12:39:18.287Z,83.25
2019-01-17T12:42:05.783Z,84.30
2019-01-17T12:44:34.145Z,83.74
2019-01-17T12:47:02.514Z,83.22
2019-01-17T12:49:30.893Z,82.55
2019-01-17T12:51:59.256Z,83.68
2019-01-17T12:54:27.643Z,83.75
2019-01-17T12:56:56.010Z,83.59
2019-01-17T12:59:24.403Z,84.78
2019-01-17T13:01:52.774Z,84.65
2019-01-17T13:04:21.156Z,84.49
2019-01-17T13:06:49.526Z,84.19
2019-01-17T13:09:17.912Z,84.13
2019-01-17T13:11:46.320Z,84.24
2019-01-17T13:14:14.698Z,84.24
2019-01-17T13:16:43.083Z,84.41
2019-01-17T13:19:11.471Z,84.17
2019-01-17T13:21:40.101Z,83.82
2019-01-17T13:24:08.533Z,83.79
2019-01-17T13:26:36.917Z,83.49
2019-01-17T13:29:05.308Z,83.21
2019-01-17T13:31:33.677Z,83.78
2019-01-17T13:34:02.083Z,83.40
2019-01-17T13:36:30.522Z,83.20
2019-01-17T13:38:58.906Z,82.88
2019-01-17T13:41:27.287Z,82.65
2019-01-17T13:43:55.676Z,82.46
2019-01-17T13:46:24.043Z,82.33
2019-01-17T13:48:52.429Z,82.04
2019-01-17T13:51:20.797Z,82.00
2019-01-17T13:53:49.185Z,82.42
2019-01-17T13:56:17.550Z,83.93
2019-01-17T13:58:45.931Z,85.09
2019-01-17T14:01:14.302Z,84.81
2019-01-17T14:03:42.681Z,86.29
2019-01-17T14:06:11.049Z,88.17
2019-01-17T14:08:39.420Z,88.36
2019-01-17T14:11:07.793Z,89.21
2019-01-17T14:13:36.161Z,90.51
2019-01-17T14:16:04.872Z,91.42
2019-01-17T14:18:33.235Z,91.03
2019-01-17T14:21:01.612Z,91.21
2019-01-17T14:23:29.978Z,91.32
2019-01-17T14:25:58.356Z,92.26
2019-01-17T14:28:26.720Z,92.03
2019-01-17T14:30:55.095Z,91.60
2019-01-17T14:33:24.281Z,91.14
2019-01-17T14:35:52.725Z,91.68
2019-01-17T14:38:21.685Z,92.16
2019-01-17T14:40:50.049Z,91.98
2019-01-17T14:43:18.425Z,92.90
2019-01-17T14:45:46.796Z,92.63
2019-01-17T14:48:15.157Z,91.91
2019-01-17T14:50:43.536Z,91.75
2019-01-17T14:53:11.913Z,91.67
2019-01-17T14:55:40.294Z,90.90
2019-01-17T14:58:08.771Z,90.35
2019-01-17T15:00:37.150Z,90.09
2019-01-17T15:03:05.517Z,89.69
2019-01-17T15:05:33.978Z,91.38
2019-01-17T15:08:02.343Z,91.21
2019-01-17T15:10:33.791Z,91.58
2019-01-17T15:13:02.164Z,92.17
2019-01-17T15:15:30.549Z,92.10
2019-01-17T15:17:58.919Z,91.62
2019-01-17T15:20:27.346Z,92.06
2019-01-17T15:22:55.708Z,92.69
2019-01-17T15:25:24.084Z,92.96
2019-01-17T15:27:52.459Z,92.75
2019-01-17T15:30:26.888Z,92.69
2019-01-17T15:32:55.328Z,92.41
2019-01-17T15:35:23.705Z,93.15
2019-01-17T15:37:52.068Z,93.87
2019-01-17T15:40:27.349Z,93.37
2019-01-17T15:42:55.898Z,92.67
2019-01-17T15:45:24.284Z,92.14
2019-01-17T15:47:52.648Z,92.59
2019-01-17T15:50:21.197Z,93.30
2019-01-17T15:52:49.668Z,92.85
2019-01-17T15:55:18.311Z,92.40
2019-01-17T15:57:46.677Z,92.05
2019-01-17T16:00:20.651Z,92.04
2019-01-17T16:02:49.010Z,91.40
2019-01-17T16:05:17.465Z,91.38
2019-01-17T16:07:45.830Z,91.75
2019-01-17T16:10:15.745Z,91.15
2019-01-17T16:12:44.127Z,91.38
2019-01-17T16:15:15.387Z,91.64
2019-01-17T16:17:43.764Z,91.84
2019-01-17T16:20:14.379Z,92.49
2019-01-17T16:22:42.987Z,92.80
2019-01-17T16:25:13.202Z,93.28
2019-01-17T16:27:41.949Z,93.42
2019-01-17T16:30:22.160Z,93.57
2019-01-17T16:32:50.529Z,93.89
2019-01-17T16:35:18.904Z,93.94
2019-01-17T16:37:47.269Z,93.64
2019-01-17T16:40:16.007Z,93.78
2019-01-17T16:42:44.389Z,93.95
2019-01-17T16:45:15.367Z,94.13
2019-01-17T16:47:43.740Z,93.70
2019-01-17T16:50:17.037Z,93.69
2019-01-17T16:52:45.414Z,93.52
2019-01-17T16:55:14.615Z,93.68
2019-01-17T16:57:48.991Z,93.21
2019-01-17T17:00:24.741Z,92.92
2019-01-17T17:02:53.113Z,92.92
2019-01-17T17:05:21.476Z,93.22
2019-01-17T17:07:49.852Z,92.54
2019-01-17T17:10:18.459Z,91.73
2019-01-17T17:12:46.828Z,91.20
2019-01-17T17:15:15.537Z,90.89
2019-01-17T17:17:43.985Z,90.31
2019-01-17T17:20:27.561Z,90.98
2019-01-17T17:22:55.854Z,90.80
2019-01-17T17:25:24.222Z,90.79
2019-01-17T17:27:55.618Z,90.46
2019-01-17T17:30:27.366Z,90.51
2019-01-17T17:32:55.741Z,90.80
2019-01-17T17:35:24.115Z,91.57
2019-01-17T17:37:52.484Z,92.43
2019-01-17T17:40:23.898Z,92.28
2019-01-17T17:42:52.272Z,91.89
2019-01-17T17:45:20.712Z,91.88
2019-01-17T17:47:49.088Z,92.37
2019-01-17T17:50:22.086Z,91.99
2019-01-17T17:52:50.466Z,91.56
2019-01-17T17:55:19.598Z,91.76
2019-01-17T17:57:48.062Z,91.49
2019-01-17T18:00:23.320Z,91.52
2019-01-17T18:02:52.164Z,91.13
2019-01-17T18:05:20.544Z,91.18
2019-01-17T18:07:48.915Z,90.92
2019-01-17T18:10:17.823Z,91.03
2019-01-17T18:12:46.197Z,91.31
2019-01-17T18:15:19.308Z,91.61
2019-01-17T18:17:47.954Z,91.71
2019-01-17T18:20:17.367Z,91.63
2019-01-17T18:22:45.909Z,91.26
2019-01-17T18:25:14.416Z,90.61
2019-01-17T18:27:43.073Z,91.02
2019-01-17T18:30:23.260Z,91.61
2019-01-17T18:32:51.874Z,92.26
2019-01-17T18:35:20.408Z,91.96
2019-01-17T18:37:48.853Z,92.07
2019-01-17T18:40:19.230Z,91.59
2019-01-17T18:42:47.773Z,91.38
2019-01-17T18:45:26.349Z,91.37
2019-01-17T18:47:54.805Z,91.51
2019-01-17T18:50:25.813Z,91.99
2019-01-17T18:55:48.956Z,91.83
2019-01-17T18:58:36.675Z,91.96
2019-01-17T19:03:54.188Z,91.73
2019-01-17T19:06:22.555Z,91.97
2019-01-17T19:08:50.933Z,92.17
2019-01-17T19:11:19.305Z,92.30
2019-01-17T19:13:47.687Z,92.01
2019-01-17T19:21:57.021Z,92.35
2019-01-17T19:27:12.826Z,91.83
2019-01-17T19:29:41.193Z,92.23
2019-01-17T19:32:09.584Z,92.88
2019-01-17T19:34:37.948Z,93.30
2019-01-17T19:40:01.458Z,94.76
2019-01-17T19:42:29.844Z,95.31
2019-01-17T19:44:58.213Z,96.40
2019-01-17T19:47:26.585Z,97.33
2019-01-17T19:50:33.549Z,98.10
2019-01-17T19:53:21.171Z,97.75
2019-01-17T19:55:49.549Z,97.33
2019-01-17T19:58:37.167Z,96.99
2019-01-17T20:01:24.787Z,96.91
2019-01-17T20:04:12.406Z,96.66
2019-01-17T20:07:00.028Z,96.64
2019-01-17T20:09:47.514Z,96.36
2019-01-17T20:12:15.895Z,96.09
2019-01-17T20:14:44.260Z,95.99
2019-01-17T20:17:12.638Z,96.45
2019-01-17T20:20:00.348Z,97.33
2019-01-17T20:22:28.725Z,97.37
2019-01-17T20:25:16.436Z,97.46
2019-01-17T20:27:44.829Z,97.16
2019-01-17T20:30:53.115Z,97.27
2019-01-17T20:33:21.507Z,97.17
2019-01-17T20:36:09.221Z,97.07
2019-01-17T20:38:37.596Z,96.91
2019-01-17T20:41:25.080Z,96.70
2019-01-17T20:43:53.459Z,96.88
2019-01-17T20:47:01.731Z,97.30
2019-01-17T20:52:03.647Z,97.65
2019-01-17T20:54:51.270Z,97.50
2019-01-17T20:57:39.069Z,97.13
2019-01-17T21:00:47.409Z,96.45
2019-01-17T21:03:55.699Z,96.47
2019-01-17T21:06:43.312Z,96.60
2019-01-17T21:14:24.785Z,95.33
2019-01-17T21:16:53.153Z,96.09
2019-01-17T21:19:40.872Z,96.26
2019-01-17T21:25:15.925Z,95.53
2019-01-17T21:27:44.296Z,95.38
2019-01-17T21:30:52.577Z,95.58
2019-01-17T21:33:20.952Z,95.32
2019-01-17T21:36:27.711Z,95.16
2019-01-17T21:38:56.088Z,95.58
2019-01-17T21:41:24.470Z,96.05
2019-01-17T21:43:52.913Z,95.94
2019-01-17T21:46:21.277Z,95.87
2019-01-17T21:48:49.651Z,95.86
2019-01-17T21:57:18.861Z,95.58
2019-01-17T22:00:06.508Z,95.65
2019-01-17T22:02:54.030Z,95.36
2019-01-17T22:08:49.752Z,95.34
2019-01-17T22:11:18.130Z,95.99
2019-01-17T22:14:05.636Z,96.08
2019-01-17T22:16:34.021Z,95.86
2019-01-17T22:19:21.673Z,95.17
2019-01-17T22:21:50.082Z,94.80
2019-01-17T22:24:18.476Z,95.03
2019-01-17T22:26:46.848Z,95.13
2019-01-17T22:29:15.219Z,94.74
2019-01-17T22:31:43.586Z,94.82
2019-01-17T22:34:11.960Z,94.48
2019-01-17T22:36:59.445Z,94.51
2019-01-17T22:39:27.819Z,94.17
2019-01-17T22:42:15.536Z,94.42
2019-01-17T22:47:17.745Z,95.16
2019-01-17T22:50:05.241Z,95.08
2019-01-17T22:52:33.609Z,94.31
2019-01-17T22:55:24.199Z,94.59
2019-01-17T22:58:11.816Z,95.00
2019-01-17T23:01:20.093Z,94.81
2019-01-17T23:04:07.711Z,93.94
2019-01-17T23:06:36.082Z,93.68
2019-01-17T23:09:44.364Z,94.29
2019-01-17T23:12:12.734Z,93.52
2019-01-17T23:14:41.114Z,93.89
2019-01-17T23:17:28.820Z,93.46
2019-01-17T23:19:57.200Z,92.92
2019-01-17T23:23:05.484Z,92.81
2019-01-17T23:25:33.855Z,92.23
2019-01-17T23:28:21.471Z,92.08
2019-01-17T23:30:49.845Z,91.85
2019-01-17T23:33:18.208Z,91.38
2019-01-17T23:36:05.928Z,90.86
2019-01-17T23:39:14.299Z,90.18
2019-01-17T23:41:42.670Z,89.89
2019-01-17T23:44:30.393Z,89.82
2019-01-17T23:47:18.009Z,89.44
2019-01-17T23:50:05.637Z,88.87
2019-01-17T23:52:33.999Z,88.58
2019-01-17T23:55:02.373Z,87.96
2019-01-17T23:57:49.988Z,87.74
